createdAt,value
2023-02-26T00:01:03.286Z,1.80
2023-02-26T00:03:32.401Z,1.67
2023-02-26T00:06:00.986Z,1.60
2023-02-26T00:08:29.066Z,1.60
2023-02-26T00:10:57.377Z,1.70
2023-02-26T00:13:25.524Z,1.63
2023-02-26T00:15:58.126Z,1.70
2023-02-26T00:18:28.904Z,1.77
2023-02-26T00:20:58.504Z,1.80
2023-02-26T00:23:26.450Z,1.83
2023-02-26T00:25:54.231Z,1.77
2023-02-26T00:28:22.221Z,1.80
2023-02-26T00:30:50.148Z,1.90
2023-02-26T00:33:18.230Z,2.00
2023-02-26T00:35:48.059Z,1.93
2023-02-26T00:38:18.173Z,1.80
2023-02-26T00:40:46.671Z,1.90
2023-02-26T00:43:16.662Z,1.90
2023-02-26T00:45:46.765Z,2.07
2023-02-26T00:48:21.049Z,1.90
2023-02-26T00:50:52.576Z,2.00
2023-02-26T00:53:23.720Z,2.00
2023-02-26T00:55:51.444Z,2.10
2023-02-26T00:58:19.242Z,2.00
2023-02-26T01:00:46.973Z,2.30
2023-02-26T01:03:14.945Z,2.00
2023-02-26T01:05:43.169Z,2.10
2023-02-26T01:08:14.966Z,2.30
2023-02-26T01:10:44.480Z,2.10
2023-02-26T01:13:12.461Z,2.00
2023-02-26T01:15:40.577Z,2.03
2023-02-26T01:18:12.958Z,2.10
2023-02-26T01:20:44.948Z,2.30
2023-02-26T01:23:15.489Z,2.13
2023-02-26T01:25:47.806Z,2.30
2023-02-26T01:28:15.779Z,2.00
2023-02-26T01:30:43.942Z,2.07
2023-02-26T01:33:15.368Z,2.10
2023-02-26T01:35:44.158Z,2.37
2023-02-26T01:38:17.641Z,2.17
2023-02-26T01:41:04.040Z,2.43
2023-02-26T01:43:37.060Z,2.30
2023-02-26T01:46:06.904Z,2.50
2023-02-26T01:48:39.295Z,2.30
2023-02-26T01:51:07.054Z,2.40
2023-02-26T01:53:34.794Z,2.37
2023-02-26T01:56:04.764Z,2.57
2023-02-26T01:58:33.860Z,2.40
2023-02-26T02:01:03.354Z,2.50
2023-02-26T02:03:34.322Z,2.77
2023-02-26T02:06:04.143Z,2.70
2023-02-26T02:08:33.674Z,2.57
2023-02-26T02:11:02.625Z,2.63
2023-02-26T02:13:34.523Z,2.80
2023-02-26T02:16:09.417Z,2.80
2023-02-26T02:18:40.042Z,3.00
2023-02-26T02:21:16.466Z,2.93
2023-02-26T02:23:49.702Z,3.13
2023-02-26T02:26:38.178Z,2.97
2023-02-26T02:29:21.835Z,2.97
2023-02-26T02:31:56.799Z,3.30
2023-02-26T02:34:27.755Z,3.00
2023-02-26T02:37:00.409Z,3.20
2023-02-26T02:39:30.363Z,3.20
2023-02-26T02:42:00.093Z,3.20
2023-02-26T02:44:32.548Z,3.40
2023-02-26T02:47:03.164Z,3.27
2023-02-26T02:49:32.810Z,3.37
2023-02-26T02:52:03.297Z,3.20
2023-02-26T02:54:32.557Z,3.70
2023-02-26T02:57:05.869Z,3.40
2023-02-26T02:59:35.867Z,3.60
2023-02-26T03:02:08.662Z,3.60
2023-02-26T03:04:36.507Z,3.43
2023-02-26T03:07:04.244Z,3.30
2023-02-26T03:09:31.962Z,3.63
2023-02-26T03:11:59.726Z,3.63
2023-02-26T03:14:28.169Z,4.00
2023-02-26T03:17:07.631Z,3.90
2023-02-26T03:19:43.616Z,3.70
2023-02-26T03:22:13.737Z,3.83
2023-02-26T03:24:48.013Z,4.20
2023-02-26T03:27:18.040Z,4.10
2023-02-26T03:29:48.432Z,4.20
2023-02-26T03:32:17.603Z,4.80
2023-02-26T03:34:48.632Z,5.20
2023-02-26T03:37:19.464Z,4.80
2023-02-26T03:39:48.567Z,4.57
2023-02-26T03:42:19.809Z,5.00
2023-02-26T03:44:50.167Z,4.87
2023-02-26T03:47:18.152Z,5.00
2023-02-26T03:49:49.285Z,4.80
2023-02-26T03:52:17.280Z,4.77
2023-02-26T03:54:47.865Z,5.00
2023-02-26T03:57:15.670Z,5.13
2023-02-26T03:59:43.497Z,5.10
2023-02-26T04:02:12.765Z,5.53
2023-02-26T04:04:48.693Z,5.57
2023-02-26T04:07:18.437Z,5.43
2023-02-26T04:09:47.596Z,5.20
2023-02-26T04:12:15.860Z,5.67
2023-02-26T04:14:43.583Z,5.63
2023-02-26T04:17:11.436Z,5.70
2023-02-26T04:19:39.157Z,5.70
2023-02-26T04:22:06.876Z,6.03
2023-02-26T04:24:36.024Z,6.37
2023-02-26T04:27:03.782Z,5.63
2023-02-26T04:29:31.642Z,6.30
2023-02-26T04:31:59.454Z,6.40
2023-02-26T04:34:27.379Z,6.77
2023-02-26T04:36:55.073Z,6.73
2023-02-26T04:39:22.787Z,6.70
2023-02-26T04:41:53.903Z,6.80
2023-02-26T04:44:21.607Z,7.17
2023-02-26T04:46:49.317Z,7.13
2023-02-26T04:49:18.985Z,7.03
2023-02-26T04:51:46.757Z,6.90
2023-02-26T04:54:14.610Z,6.70
2023-02-26T04:56:42.307Z,6.60
2023-02-26T04:59:11.370Z,6.80
2023-02-26T05:01:39.081Z,7.57
2023-02-26T05:04:07.246Z,7.77
2023-02-26T05:06:35.186Z,7.10
2023-02-26T05:09:02.894Z,7.40
2023-02-26T05:11:30.652Z,7.53
2023-02-26T05:13:58.417Z,6.97
2023-02-26T05:16:28.080Z,7.37
2023-02-26T05:18:56.011Z,7.70
2023-02-26T05:21:26.137Z,7.67
2023-02-26T05:23:54.080Z,7.53
2023-02-26T05:26:21.834Z,7.70
2023-02-26T05:28:49.676Z,7.77
2023-02-26T05:31:17.586Z,7.93
2023-02-26T05:33:46.770Z,8.07
2023-02-26T05:36:14.719Z,7.83
2023-02-26T05:38:42.788Z,7.87
2023-02-26T05:41:10.601Z,8.80
2023-02-26T05:43:39.597Z,8.60
2023-02-26T05:46:07.348Z,8.63
2023-02-26T05:48:35.092Z,8.60
2023-02-26T05:51:04.343Z,8.40
2023-02-26T05:53:32.120Z,8.07
2023-02-26T05:55:59.873Z,8.50
2023-02-26T05:58:27.683Z,8.23
2023-02-26T06:00:55.411Z,9.13
2023-02-26T06:03:23.246Z,8.73
2023-02-26T06:05:51.115Z,9.20
2023-02-26T06:08:20.635Z,9.23
2023-02-26T06:10:48.311Z,9.53
2023-02-26T06:13:16.010Z,8.90
2023-02-26T06:15:43.744Z,9.13
2023-02-26T06:18:11.444Z,9.87
2023-02-26T06:20:41.421Z,10.17
2023-02-26T06:23:09.217Z,10.13
2023-02-26T06:25:39.682Z,9.87
2023-02-26T06:28:07.479Z,10.60
2023-02-26T06:30:35.361Z,9.97
2023-02-26T06:33:03.233Z,10.27
2023-02-26T06:35:31.220Z,10.33
2023-02-26T06:37:59.017Z,10.47
2023-02-26T06:40:26.795Z,10.43
2023-02-26T06:42:57.223Z,10.27
2023-02-26T06:45:25.907Z,10.47
2023-02-26T06:47:53.789Z,9.80
2023-02-26T06:50:21.622Z,10.43
2023-02-26T06:52:49.408Z,10.10
2023-02-26T06:55:17.143Z,10.10
2023-02-26T06:57:44.877Z,10.30
2023-02-26T07:00:16.987Z,9.90
2023-02-26T07:02:44.807Z,10.03
2023-02-26T07:05:12.564Z,10.43
2023-02-26T07:07:40.322Z,10.57
2023-02-26T07:10:08.522Z,11.07
2023-02-26T07:12:36.227Z,11.43
2023-02-26T07:15:03.916Z,11.33
2023-02-26T07:17:33.293Z,11.60
2023-02-26T07:20:06.293Z,11.53
2023-02-26T07:22:34.287Z,11.57
2023-02-26T07:25:02.029Z,13.07
2023-02-26T07:27:30.141Z,12.07
2023-02-26T07:29:58.441Z,12.23
2023-02-26T07:32:26.677Z,12.17
2023-02-26T07:34:55.961Z,12.87
2023-02-26T07:37:23.812Z,13.20
2023-02-26T07:39:53.658Z,12.90
2023-02-26T07:42:21.376Z,12.50
2023-02-26T07:44:49.058Z,13.80
2023-02-26T07:47:16.798Z,13.17
2023-02-26T07:49:44.516Z,13.63
2023-02-26T07:52:13.719Z,13.77
2023-02-26T07:54:41.421Z,13.90
2023-02-26T07:57:09.120Z,13.57
2023-02-26T07:59:36.781Z,14.23
2023-02-26T08:02:04.654Z,14.10
2023-02-26T08:04:35.434Z,14.07
2023-02-26T08:07:04.395Z,13.70
2023-02-26T08:09:33.599Z,13.87
2023-02-26T08:12:01.312Z,14.57
2023-02-26T08:14:29.042Z,14.13
2023-02-26T08:16:56.769Z,14.37
2023-02-26T08:19:24.448Z,13.07
2023-02-26T08:21:52.172Z,14.47
2023-02-26T08:24:22.576Z,14.67
2023-02-26T08:26:51.830Z,13.73
2023-02-26T08:29:19.626Z,14.00
2023-02-26T08:31:47.540Z,13.47
2023-02-26T08:34:15.384Z,13.77
2023-02-26T08:36:43.238Z,13.57
2023-02-26T08:39:10.969Z,13.83
2023-02-26T08:41:42.108Z,13.80
2023-02-26T08:44:14.551Z,13.93
2023-02-26T08:46:42.549Z,13.60
2023-02-26T08:49:10.391Z,13.23
2023-02-26T08:51:38.330Z,13.37
2023-02-26T08:54:06.132Z,13.20
2023-02-26T08:56:33.859Z,13.17
2023-02-26T08:59:03.466Z,13.37
2023-02-26T09:01:35.240Z,12.67
2023-02-26T09:04:02.982Z,13.17
2023-02-26T09:06:30.754Z,13.67
2023-02-26T09:08:58.498Z,13.00
2023-02-26T09:11:26.630Z,12.63
2023-02-26T09:13:54.549Z,12.77
2023-02-26T09:16:22.297Z,13.23
2023-02-26T09:18:51.712Z,12.93
2023-02-26T09:21:19.465Z,13.70
2023-02-26T09:23:47.211Z,13.43
2023-02-26T09:26:14.953Z,12.77
2023-02-26T09:28:45.943Z,13.40
2023-02-26T09:31:13.797Z,12.50
2023-02-26T09:33:41.989Z,12.50
2023-02-26T09:36:11.210Z,12.67
2023-02-26T09:38:39.053Z,12.60
2023-02-26T09:41:08.246Z,12.67
2023-02-26T09:43:51.102Z,12.83
2023-02-26T09:46:28.477Z,12.40
2023-02-26T09:49:07.085Z,12.03
2023-02-26T09:51:39.185Z,12.30
2023-02-26T09:54:13.390Z,11.87
2023-02-26T09:56:41.215Z,12.23
2023-02-26T09:59:10.499Z,11.43
2023-02-26T10:01:43.858Z,11.60
2023-02-26T10:04:20.635Z,10.57
2023-02-26T10:06:55.687Z,10.87
2023-02-26T10:09:29.211Z,11.10
2023-02-26T10:11:59.181Z,10.93
2023-02-26T10:14:30.063Z,10.53
2023-02-26T10:17:00.159Z,11.00
2023-02-26T10:19:30.961Z,10.60
2023-02-26T10:22:02.687Z,9.77
2023-02-26T10:24:33.108Z,9.90
2023-02-26T10:27:04.336Z,9.40
2023-02-26T10:29:35.734Z,8.57
2023-02-26T10:32:07.356Z,8.40
2023-02-26T10:34:37.320Z,7.57
2023-02-26T10:37:14.187Z,7.60
2023-02-26T10:39:45.831Z,6.90
2023-02-26T10:42:14.746Z,6.53
2023-02-26T10:44:45.888Z,6.40
2023-02-26T10:47:16.195Z,6.10
2023-02-26T10:50:01.850Z,5.67
2023-02-26T10:52:33.386Z,5.70
2023-02-26T10:55:14.339Z,5.43
2023-02-26T10:57:44.836Z,4.80
2023-02-26T11:00:18.202Z,4.00
2023-02-26T11:02:47.495Z,4.13
2023-02-26T11:05:17.448Z,4.60
2023-02-26T11:07:47.166Z,4.13
2023-02-26T11:10:17.039Z,4.40
2023-02-26T11:12:45.264Z,4.37
2023-02-26T11:15:19.856Z,4.60
2023-02-26T11:17:48.841Z,4.17
2023-02-26T11:20:18.886Z,3.40
2023-02-26T11:22:49.549Z,3.40
2023-02-26T11:25:19.239Z,3.30
2023-02-26T11:27:49.809Z,3.03
2023-02-26T11:30:18.686Z,2.90
2023-02-26T11:32:47.178Z,2.90
2023-02-26T11:35:16.632Z,2.40
2023-02-26T11:37:48.743Z,2.40
2023-02-26T11:40:21.518Z,2.60
2023-02-26T11:42:50.756Z,2.20
2023-02-26T11:45:19.865Z,2.30
2023-02-26T11:47:48.140Z,2.10
2023-02-26T11:50:17.116Z,2.07
2023-02-26T11:52:45.667Z,1.83
2023-02-26T11:55:22.367Z,2.00
2023-02-26T11:57:54.028Z,1.80
2023-02-26T12:00:25.062Z,1.80
2023-02-26T12:03:01.361Z,1.70
2023-02-26T12:05:29.195Z,1.70
2023-02-26T12:07:56.949Z,1.50
2023-02-26T12:10:29.730Z,1.60
2023-02-26T12:13:06.342Z,1.40
2023-02-26T12:15:37.645Z,1.40
2023-02-26T12:18:20.481Z,1.40
2023-02-26T12:20:52.474Z,1.70
2023-02-26T12:23:31.370Z,1.40
2023-02-26T12:26:13.910Z,1.70
2023-02-26T12:28:56.308Z,1.60
2023-02-26T12:31:44.850Z,1.50
2023-02-26T12:34:22.946Z,1.70
2023-02-26T12:36:59.852Z,1.60
2023-02-26T12:39:54.244Z,1.90
2023-02-26T12:42:26.794Z,1.93
2023-02-26T12:45:18.259Z,1.67
2023-02-26T12:47:53.627Z,1.70
2023-02-26T12:50:26.675Z,1.70
2023-02-26T12:53:10.952Z,1.60
2023-02-26T12:55:43.570Z,1.60
2023-02-26T12:58:25.861Z,1.80
2023-02-26T13:01:01.652Z,1.70
2023-02-26T13:03:50.595Z,1.60
2023-02-26T13:06:41.993Z,1.70
2023-02-26T13:09:13.889Z,2.07
2023-02-26T13:11:47.723Z,1.60
2023-02-26T13:14:23.152Z,1.90
2023-02-26T13:16:53.731Z,1.80
2023-02-26T13:19:29.284Z,1.80
2023-02-26T13:22:01.038Z,1.90
2023-02-26T13:24:33.530Z,1.80
2023-02-26T13:27:02.568Z,1.70
2023-02-26T13:29:31.739Z,2.10
2023-02-26T13:32:01.062Z,1.70
2023-02-26T13:34:35.016Z,1.80
2023-02-26T13:37:06.573Z,1.97
2023-02-26T13:39:41.455Z,2.00
2023-02-26T13:42:14.117Z,2.03
2023-02-26T13:44:47.321Z,2.10
2023-02-26T13:47:22.437Z,1.80
2023-02-26T13:49:54.781Z,1.80
2023-02-26T13:52:34.034Z,1.90
2023-02-26T13:55:03.211Z,1.97
2023-02-26T13:57:38.807Z,1.70
2023-02-26T14:00:13.354Z,1.80
2023-02-26T14:03:01.776Z,1.70
2023-02-26T14:05:31.691Z,1.50
2023-02-26T14:08:11.762Z,1.53
2023-02-26T14:10:45.787Z,1.70
2023-02-26T14:13:16.566Z,1.60
2023-02-26T14:15:49.950Z,1.60
2023-02-26T14:18:35.471Z,1.60
2023-02-26T14:21:24.117Z,1.70
2023-02-26T14:23:54.154Z,1.33
2023-02-26T14:26:25.462Z,1.50
2023-02-26T14:28:57.708Z,1.53
2023-02-26T14:31:27.771Z,1.90
2023-02-26T14:34:01.028Z,1.70
2023-02-26T14:36:33.396Z,1.50
2023-02-26T14:39:04.944Z,1.60
2023-02-26T14:41:36.438Z,1.63
2023-02-26T14:44:06.683Z,1.43
2023-02-26T14:46:35.230Z,1.63
2023-02-26T14:49:03.254Z,1.67
2023-02-26T14:51:36.952Z,1.70
2023-02-26T14:54:22.284Z,1.60
2023-02-26T14:56:55.491Z,1.60
2023-02-26T14:59:31.146Z,1.70
2023-02-26T15:02:04.339Z,1.80
2023-02-26T15:04:41.467Z,1.70
2023-02-26T15:07:21.195Z,1.80
2023-02-26T15:09:58.276Z,1.80
2023-02-26T15:12:33.108Z,1.70
2023-02-26T15:15:07.989Z,1.80
2023-02-26T15:17:42.234Z,1.80
2023-02-26T15:20:15.808Z,1.70
2023-02-26T15:22:50.996Z,1.80
2023-02-26T15:25:36.169Z,1.70
2023-02-26T15:28:06.884Z,1.70
2023-02-26T15:30:35.146Z,1.70
2023-02-26T15:33:04.956Z,1.70
2023-02-26T15:35:35.051Z,1.80
2023-02-26T15:38:04.300Z,1.70
2023-02-26T15:40:33.947Z,1.70
2023-02-26T15:43:02.377Z,1.80
2023-02-26T15:45:34.638Z,1.90
2023-02-26T15:48:04.202Z,1.90
2023-02-26T15:50:36.648Z,2.00
2023-02-26T15:53:05.209Z,1.87
2023-02-26T15:55:35.019Z,2.07
2023-02-26T15:58:03.166Z,1.80
2023-02-26T16:00:38.762Z,2.03
2023-02-26T16:03:06.475Z,1.83
2023-02-26T16:05:34.285Z,1.80
2023-02-26T16:08:02.155Z,1.83
2023-02-26T16:10:33.406Z,1.90
2023-02-26T16:13:01.910Z,1.80
2023-02-26T16:15:31.083Z,1.87
2023-02-26T16:18:01.687Z,1.93
2023-02-26T16:20:32.895Z,2.10
2023-02-26T16:23:03.366Z,1.90
2023-02-26T16:25:34.626Z,1.90
2023-02-26T16:28:03.844Z,2.00
2023-02-26T16:30:33.278Z,1.90
2023-02-26T16:33:03.018Z,1.97
2023-02-26T16:35:34.915Z,1.80
2023-02-26T16:38:11.843Z,2.00
2023-02-26T16:40:45.096Z,2.00
2023-02-26T16:43:35.562Z,2.10
2023-02-26T16:46:04.771Z,1.90
2023-02-26T16:48:38.037Z,1.93
2023-02-26T16:51:07.708Z,1.90
2023-02-26T16:53:36.761Z,1.87
2023-02-26T16:56:05.251Z,1.90
2023-02-26T16:58:33.355Z,1.77
2023-02-26T17:01:05.739Z,1.63
2023-02-26T17:03:36.006Z,1.70
2023-02-26T17:06:06.444Z,1.60
2023-02-26T17:08:35.421Z,1.50
2023-02-26T17:11:04.540Z,1.60
2023-02-26T17:13:33.733Z,1.70
2023-02-26T17:16:03.111Z,1.67
2023-02-26T17:18:31.398Z,1.80
2023-02-26T17:21:04.247Z,1.50
2023-02-26T17:23:37.077Z,1.80
2023-02-26T17:26:05.723Z,1.83
2023-02-26T17:28:37.739Z,1.77
2023-02-26T17:31:09.169Z,1.87
2023-02-26T17:33:37.912Z,1.87
2023-02-26T17:36:08.020Z,2.00
2023-02-26T17:38:35.808Z,1.90
2023-02-26T17:41:04.730Z,1.80
2023-02-26T17:43:33.163Z,2.03
2023-02-26T17:46:03.659Z,2.00
2023-02-26T17:48:31.482Z,1.87
2023-02-26T17:51:01.430Z,1.87
2023-02-26T17:53:40.813Z,1.80
2023-02-26T17:56:13.226Z,1.80
2023-02-26T17:58:40.980Z,1.70
2023-02-26T18:01:08.704Z,1.80
2023-02-26T18:03:36.560Z,1.77
2023-02-26T18:06:04.539Z,2.00
2023-02-26T18:08:35.482Z,2.00
2023-02-26T18:11:03.489Z,2.00
2023-02-26T18:13:33.442Z,1.63
2023-02-26T18:16:02.887Z,1.60
2023-02-26T18:18:30.991Z,1.60
2023-02-26T18:20:58.941Z,1.60
2023-02-26T18:23:26.909Z,1.60
2023-02-26T18:25:59.339Z,1.60
2023-02-26T18:28:27.979Z,1.60
2023-02-26T18:30:56.401Z,1.67
2023-02-26T18:33:25.564Z,1.70
2023-02-26T18:35:56.038Z,1.60
2023-02-26T18:38:24.569Z,1.80
2023-02-26T18:40:52.437Z,1.60
2023-02-26T18:43:21.621Z,1.60
2023-02-26T18:45:52.377Z,1.60
2023-02-26T18:48:20.997Z,1.50
2023-02-26T18:50:49.366Z,1.60
2023-02-26T18:53:23.178Z,1.60
2023-02-26T18:55:51.360Z,1.70
2023-02-26T18:58:19.428Z,1.60
2023-02-26T19:00:48.525Z,1.60
2023-02-26T19:03:16.326Z,1.50
2023-02-26T19:05:44.152Z,1.30
2023-02-26T19:08:12.331Z,1.40
2023-02-26T19:10:40.186Z,1.40
2023-02-26T19:13:07.959Z,1.60
2023-02-26T19:15:38.933Z,1.50
2023-02-26T19:18:08.523Z,1.60
2023-02-26T19:20:36.203Z,1.60
2023-02-26T19:23:05.846Z,1.60
2023-02-26T19:25:34.038Z,1.30
2023-02-26T19:28:01.770Z,1.43
2023-02-26T19:30:29.619Z,1.40
2023-02-26T19:32:57.905Z,1.30
2023-02-26T19:35:28.186Z,1.40
2023-02-26T19:37:55.944Z,1.40
2023-02-26T19:40:23.795Z,1.60
2023-02-26T19:42:51.639Z,1.47
2023-02-26T19:45:19.432Z,1.50
2023-02-26T19:47:47.485Z,1.30
2023-02-26T19:50:15.376Z,1.40
2023-02-26T19:52:44.612Z,1.53
2023-02-26T19:55:14.314Z,1.67
2023-02-26T19:57:42.128Z,1.53
2023-02-26T20:00:10.502Z,1.50
2023-02-26T20:02:39.051Z,1.50
2023-02-26T20:05:07.664Z,1.30
2023-02-26T20:07:35.439Z,1.50
2023-02-26T20:10:04.725Z,1.33
2023-02-26T20:12:32.477Z,1.50
2023-02-26T20:15:02.716Z,1.50
2023-02-26T20:17:30.477Z,1.60
2023-02-26T20:19:58.231Z,1.47
2023-02-26T20:22:25.959Z,1.50
2023-02-26T20:24:58.726Z,1.50
2023-02-26T20:27:27.977Z,1.40
2023-02-26T20:29:55.762Z,1.60
2023-02-26T20:32:24.240Z,1.47
2023-02-26T20:34:54.765Z,1.30
2023-02-26T20:37:26.526Z,1.50
2023-02-26T20:39:54.598Z,1.40
2023-02-26T20:42:22.291Z,1.40
2023-02-26T20:44:51.497Z,1.60
2023-02-26T20:47:19.238Z,1.30
2023-02-26T20:49:47.026Z,1.40
2023-02-26T20:52:14.771Z,1.47
2023-02-26T20:54:42.611Z,1.63
2023-02-26T20:57:10.306Z,1.60
2023-02-26T20:59:38.202Z,1.60
2023-02-26T21:02:07.406Z,1.50
2023-02-26T21:04:35.058Z,1.60
2023-02-26T21:07:21.884Z,1.57
2023-02-26T21:09:49.809Z,1.50
2023-02-26T21:12:20.582Z,1.40
2023-02-26T21:14:52.162Z,1.60
2023-02-26T21:17:22.464Z,1.70
2023-02-26T21:19:50.235Z,1.77
2023-02-26T21:22:18.113Z,1.60
2023-02-26T21:24:45.833Z,1.70
2023-02-26T21:27:17.037Z,1.60
2023-02-26T21:29:45.176Z,1.60
2023-02-26T21:32:13.058Z,1.60
2023-02-26T21:34:42.353Z,1.47
2023-02-26T21:37:11.075Z,1.60
2023-02-26T21:39:39.462Z,1.60
2023-02-26T21:42:08.009Z,1.70
2023-02-26T21:44:36.285Z,1.60
2023-02-26T21:47:04.905Z,1.70
2023-02-26T21:49:33.048Z,1.57
2023-02-26T21:52:02.944Z,1.60
2023-02-26T21:54:31.089Z,1.60
2023-02-26T21:56:59.397Z,1.60
2023-02-26T21:59:27.277Z,1.70
2023-02-26T22:01:55.156Z,1.50
2023-02-26T22:04:23.031Z,1.60
2023-02-26T22:06:50.752Z,1.53
2023-02-26T22:09:20.217Z,1.77
2023-02-26T22:11:47.964Z,1.63
2023-02-26T22:14:15.827Z,1.80
2023-02-26T22:16:43.708Z,1.70
2023-02-26T22:19:11.460Z,1.60
2023-02-26T22:21:39.299Z,1.80
2023-02-26T22:24:07.510Z,1.80
2023-02-26T22:26:36.663Z,1.70
2023-02-26T22:29:04.766Z,1.80
2023-02-26T22:31:34.163Z,1.60
2023-02-26T22:34:01.980Z,1.73
2023-02-26T22:36:31.465Z,1.60
2023-02-26T22:38:59.625Z,1.80
2023-02-26T22:41:27.422Z,1.73
2023-02-26T22:43:56.635Z,1.70
2023-02-26T22:46:25.643Z,1.70
2023-02-26T22:48:53.866Z,1.70
2023-02-26T22:51:21.661Z,1.70
2023-02-26T22:53:49.384Z,1.80
2023-02-26T22:56:17.406Z,1.70
2023-02-26T22:58:45.162Z,1.70
2023-02-26T23:01:17.497Z,1.60
2023-02-26T23:03:45.232Z,1.70
2023-02-26T23:06:13.444Z,1.50
2023-02-26T23:08:41.360Z,1.60
2023-02-26T23:11:09.138Z,1.43
2023-02-26T23:13:38.199Z,1.60
2023-02-26T23:16:07.686Z,1.50
2023-02-26T23:18:37.265Z,1.60
2023-02-26T23:21:05.655Z,1.70
2023-02-26T23:23:33.346Z,1.60
2023-02-26T23:26:01.565Z,1.50
2023-02-26T23:28:29.321Z,1.63
2023-02-26T23:30:57.120Z,1.67
2023-02-26T23:33:25.025Z,1.50
2023-02-26T23:35:54.144Z,1.60
2023-02-26T23:38:21.904Z,1.50
2023-02-26T23:40:49.605Z,1.70
2023-02-26T23:43:17.683Z,1.50
2023-02-26T23:45:45.457Z,1.60
2023-02-26T23:48:13.163Z,1.70
2023-02-26T23:50:40.962Z,1.57
2023-02-26T23:53:10.208Z,1.50
2023-02-26T23:55:39.545Z,1.70
2023-02-26T23:58:07.327Z,1.50
